createdAt,value
2018-03-25T00:01:42.958Z,4.50
2018-03-25T00:04:10.792Z,4.40
2018-03-25T00:06:38.476Z,4.40
2018-03-25T00:09:06.177Z,4.40
2018-03-25T00:11:34.020Z,4.50
2018-03-25T00:14:01.831Z,4.50
2018-03-25T00:16:29.684Z,4.50
2018-03-25T00:18:57.541Z,4.50
2018-03-25T00:21:26.104Z,4.40
2018-03-25T00:23:53.956Z,4.40
2018-03-25T00:26:21.807Z,4.40
2018-03-25T00:28:49.556Z,4.40
2018-03-25T00:31:17.408Z,4.40
2018-03-25T00:33:45.159Z,4.40
2018-03-25T00:36:13.008Z,4.40
2018-03-25T00:38:40.692Z,4.40
2018-03-25T00:41:08.424Z,4.30
2018-03-25T00:43:36.974Z,4.30
2018-03-25T00:46:04.712Z,4.30
2018-03-25T00:48:32.464Z,4.40
2018-03-25T00:51:00.151Z,4.40
2018-03-25T00:53:28.690Z,4.40
2018-03-25T00:55:56.542Z,4.40
2018-03-25T00:58:24.229Z,4.40
2018-03-25T01:00:52.045Z,4.40
2018-03-25T01:03:19.891Z,4.40
2018-03-25T01:05:47.575Z,4.40
2018-03-25T01:08:15.391Z,4.40
2018-03-25T01:10:43.124Z,4.40
2018-03-25T01:13:10.808Z,4.30
2018-03-25T01:15:51.258Z,4.30
2018-03-25T01:18:19.802Z,4.30
2018-03-25T01:20:47.654Z,4.20
2018-03-25T01:23:15.508Z,4.30
2018-03-25T01:25:43.357Z,4.20
2018-03-25T01:28:11.208Z,4.20
2018-03-25T01:30:39.060Z,4.20
2018-03-25T01:33:06.815Z,4.10
2018-03-25T01:35:34.664Z,4.10
2018-03-25T01:38:02.516Z,4.10
2018-03-25T01:40:30.368Z,4.10
2018-03-25T01:42:58.226Z,4.10
2018-03-25T01:45:26.070Z,4.10
2018-03-25T01:47:53.826Z,4.00
2018-03-25T01:50:21.677Z,4.00
2018-03-25T01:52:49.522Z,4.00
2018-03-25T01:55:17.216Z,4.00
2018-03-25T01:57:44.944Z,3.90
2018-03-25T02:00:12.635Z,3.90
2018-03-25T02:02:40.312Z,3.90
2018-03-25T02:05:08.064Z,3.90
2018-03-25T02:07:35.754Z,3.90
2018-03-25T02:10:03.567Z,3.90
2018-03-25T02:12:31.418Z,3.90
2018-03-25T02:14:59.168Z,3.90
2018-03-25T02:17:27.019Z,3.90
2018-03-25T02:19:54.870Z,3.90
2018-03-25T02:22:22.722Z,3.80
2018-03-25T02:24:50.574Z,3.80
2018-03-25T02:27:18.313Z,3.80
2018-03-25T02:29:45.996Z,3.80
2018-03-25T02:32:14.539Z,3.70
2018-03-25T02:34:42.265Z,3.70
2018-03-25T02:37:09.951Z,3.70
2018-03-25T02:39:38.503Z,3.60
2018-03-25T02:42:06.216Z,3.60
2018-03-25T02:44:34.004Z,3.60
2018-03-25T02:47:01.857Z,3.50
2018-03-25T02:49:29.717Z,3.50
2018-03-25T02:51:57.559Z,3.50
2018-03-25T02:54:25.446Z,3.60
2018-03-25T02:56:53.368Z,3.60
2018-03-25T02:59:21.220Z,3.50
2018-03-25T03:01:49.069Z,3.60
2018-03-25T03:04:16.926Z,3.60
2018-03-25T03:06:44.773Z,3.50
2018-03-25T03:09:12.630Z,3.50
2018-03-25T03:11:40.415Z,3.50
2018-03-25T03:14:09.146Z,3.50
2018-03-25T03:16:36.999Z,3.50
2018-03-25T03:19:04.861Z,3.50
2018-03-25T03:21:33.320Z,3.50
2018-03-25T03:24:01.170Z,3.50
2018-03-25T03:26:28.847Z,3.50
2018-03-25T03:28:57.346Z,3.50
2018-03-25T03:31:25.020Z,3.50
2018-03-25T03:33:52.700Z,3.50
2018-03-25T03:36:21.213Z,3.40
2018-03-25T03:38:48.912Z,3.40
2018-03-25T03:41:17.463Z,3.40
2018-03-25T03:43:45.314Z,3.30
2018-03-25T03:46:13.103Z,3.40
2018-03-25T03:48:40.784Z,3.30
2018-03-25T03:51:08.669Z,3.20
2018-03-25T03:53:36.521Z,3.30
2018-03-25T03:56:04.212Z,3.30
2018-03-25T03:58:31.920Z,3.30
2018-03-25T04:00:59.596Z,3.30
2018-03-25T04:03:28.131Z,3.20
2018-03-25T04:05:55.849Z,3.20
2018-03-25T04:08:23.580Z,3.20
2018-03-25T04:10:51.263Z,3.20
2018-03-25T04:13:19.029Z,3.20
2018-03-25T04:15:46.884Z,3.20
2018-03-25T04:18:14.733Z,3.20
2018-03-25T04:20:42.580Z,3.20
2018-03-25T04:23:10.432Z,3.10
2018-03-25T04:25:38.284Z,3.20
2018-03-25T04:28:06.037Z,3.20
2018-03-25T04:30:33.889Z,3.10
2018-03-25T04:33:01.744Z,3.10
2018-03-25T04:35:29.591Z,3.10
2018-03-25T04:37:57.342Z,3.10
2018-03-25T04:40:25.119Z,3.10
2018-03-25T04:42:53.576Z,3.10
2018-03-25T04:45:22.123Z,3.10
2018-03-25T04:47:49.975Z,3.00
2018-03-25T04:50:17.725Z,3.10
2018-03-25T04:52:45.457Z,3.10
2018-03-25T04:55:13.196Z,3.00
2018-03-25T04:57:40.876Z,3.00
2018-03-25T05:00:08.636Z,3.00
2018-03-25T05:02:36.475Z,3.00
2018-03-25T05:05:04.156Z,2.90
2018-03-25T05:07:32.652Z,2.90
2018-03-25T05:10:00.327Z,2.90
2018-03-25T05:12:28.008Z,2.90
2018-03-25T05:14:56.488Z,2.90
2018-03-25T05:17:24.167Z,2.90
2018-03-25T05:19:51.847Z,2.90
2018-03-25T05:22:19.622Z,2.90
2018-03-25T05:24:48.163Z,2.80
2018-03-25T05:27:16.018Z,2.80
2018-03-25T05:29:43.763Z,2.80
2018-03-25T05:32:11.513Z,2.90
2018-03-25T05:34:39.366Z,2.90
2018-03-25T05:37:07.058Z,2.90
2018-03-25T05:39:34.867Z,2.90
2018-03-25T05:42:02.720Z,2.90
2018-03-25T05:44:30.467Z,3.00
2018-03-25T05:46:58.320Z,3.00
2018-03-25T05:49:26.170Z,3.00
2018-03-25T05:51:53.920Z,3.00
2018-03-25T05:54:21.772Z,3.00
2018-03-25T05:56:49.544Z,3.10
2018-03-25T05:59:18.089Z,3.00
2018-03-25T06:01:45.832Z,3.00
2018-03-25T06:04:13.511Z,3.00
2018-03-25T06:06:41.971Z,3.00
2018-03-25T06:09:10.520Z,3.00
2018-03-25T06:11:38.207Z,3.00
2018-03-25T06:14:06.021Z,3.00
2018-03-25T06:16:33.873Z,3.10
2018-03-25T06:19:01.552Z,3.10
2018-03-25T06:21:30.001Z,3.10
2018-03-25T06:23:57.728Z,3.10
2018-03-25T06:26:25.399Z,3.10
2018-03-25T06:28:53.955Z,3.20
2018-03-25T06:31:21.680Z,3.20
2018-03-25T06:33:49.364Z,3.30
2018-03-25T06:36:17.914Z,3.40
2018-03-25T06:38:45.767Z,3.30
2018-03-25T06:41:13.627Z,3.40
2018-03-25T06:43:41.319Z,3.40
2018-03-25T06:46:09.063Z,3.40
2018-03-25T06:48:36.991Z,3.40
2018-03-25T06:51:05.439Z,3.30
2018-03-25T06:53:33.168Z,3.20
2018-03-25T06:56:00.855Z,3.30
2018-03-25T06:58:29.296Z,3.20
2018-03-25T07:00:57.152Z,3.20
2018-03-25T07:03:24.841Z,3.30
2018-03-25T07:05:52.572Z,3.30
2018-03-25T07:08:21.016Z,3.30
2018-03-25T07:10:48.865Z,3.20
2018-03-25T07:13:16.824Z,3.40
2018-03-25T07:15:44.670Z,3.40
2018-03-25T07:18:12.523Z,3.40
2018-03-25T07:20:40.272Z,3.50
2018-03-25T07:23:08.123Z,3.60
2018-03-25T07:25:35.875Z,3.70
2018-03-25T07:28:03.626Z,3.70
2018-03-25T07:30:31.340Z,3.80
2018-03-25T07:32:59.071Z,3.80
2018-03-25T07:35:26.748Z,3.80
2018-03-25T07:37:55.237Z,3.90
2018-03-25T07:40:22.952Z,3.90
2018-03-25T07:42:50.646Z,3.90
2018-03-25T07:45:19.138Z,3.90
2018-03-25T07:47:47.636Z,4.00
2018-03-25T07:50:16.264Z,3.90
2018-03-25T07:52:44.906Z,4.00
2018-03-25T07:55:13.680Z,4.00
2018-03-25T07:57:41.531Z,4.10
2018-03-25T08:00:09.252Z,4.10
2018-03-25T08:02:36.976Z,4.10
2018-03-25T08:05:04.687Z,4.10
2018-03-25T08:07:33.353Z,4.20
2018-03-25T08:10:01.202Z,4.10
2018-03-25T08:12:29.053Z,4.20
2018-03-25T08:14:56.802Z,4.30
2018-03-25T08:17:24.552Z,4.30
2018-03-25T08:19:52.404Z,4.30
2018-03-25T08:22:20.088Z,4.40
2018-03-25T08:24:47.780Z,4.50
2018-03-25T08:27:15.521Z,4.50
2018-03-25T08:29:43.220Z,4.50
2018-03-25T08:32:11.786Z,4.60
2018-03-25T08:34:40.281Z,4.70
2018-03-25T08:37:07.968Z,4.60
2018-03-25T08:39:35.688Z,4.70
2018-03-25T08:42:03.400Z,4.70
2018-03-25T08:44:31.951Z,4.70
2018-03-25T08:47:00.515Z,4.80
2018-03-25T08:49:28.367Z,4.70
2018-03-25T08:51:56.239Z,4.80
2018-03-25T08:54:24.815Z,4.80
2018-03-25T08:56:53.315Z,4.90
2018-03-25T08:59:21.001Z,4.80
2018-03-25T09:01:48.854Z,4.90
2018-03-25T09:04:16.609Z,5.00
2018-03-25T09:06:44.396Z,5.00
2018-03-25T09:09:12.716Z,5.10
2018-03-25T09:11:40.568Z,5.10
2018-03-25T09:14:08.421Z,5.20
2018-03-25T09:16:36.276Z,5.20
2018-03-25T09:19:04.132Z,5.30
2018-03-25T09:21:31.978Z,5.30
2018-03-25T09:23:59.659Z,5.30
2018-03-25T09:26:27.476Z,5.40
2018-03-25T09:28:55.200Z,5.40
2018-03-25T09:31:22.884Z,5.50
2018-03-25T09:33:51.545Z,5.60
2018-03-25T09:36:19.269Z,5.60
2018-03-25T09:38:46.944Z,5.70
2018-03-25T09:41:14.791Z,5.70
2018-03-25T09:43:42.645Z,5.70
2018-03-25T09:46:10.391Z,5.80
2018-03-25T09:48:38.243Z,5.80
2018-03-25T09:51:06.100Z,5.90
2018-03-25T09:53:33.849Z,5.90
2018-03-25T09:56:01.699Z,6.00
2018-03-25T09:58:29.475Z,6.00
2018-03-25T10:04:09.588Z,6.10
2018-03-25T10:06:37.439Z,6.10
2018-03-25T10:09:05.297Z,6.20
2018-03-25T10:11:33.166Z,6.20
2018-03-25T10:14:01.714Z,6.30
2018-03-25T10:16:29.566Z,6.30
2018-03-25T10:18:57.376Z,6.30
2018-03-25T10:21:25.167Z,6.40
2018-03-25T10:23:53.019Z,6.40
2018-03-25T10:26:20.767Z,6.50
2018-03-25T10:28:48.620Z,6.50
2018-03-25T10:31:16.368Z,6.60
2018-03-25T10:33:44.220Z,6.60
2018-03-25T10:36:12.071Z,6.60
2018-03-25T10:38:39.822Z,6.70
2018-03-25T10:41:07.775Z,6.70
2018-03-25T10:43:35.578Z,6.70
2018-03-25T10:46:03.380Z,6.70
2018-03-25T10:48:31.235Z,6.80
2018-03-25T10:50:59.082Z,6.80
2018-03-25T10:53:26.935Z,6.80
2018-03-25T10:55:54.785Z,6.80
2018-03-25T10:58:22.540Z,6.80
2018-03-25T11:00:50.386Z,6.80
2018-03-25T11:03:18.243Z,6.80
2018-03-25T11:05:45.989Z,6.80
2018-03-25T11:08:13.839Z,6.80
2018-03-25T11:10:41.588Z,6.80
2018-03-25T11:13:09.439Z,6.80
2018-03-25T11:15:37.296Z,6.80
2018-03-25T11:18:05.146Z,6.90
2018-03-25T11:20:32.895Z,6.90
2018-03-25T11:23:00.749Z,7.00
2018-03-25T11:25:28.604Z,7.00
2018-03-25T11:27:56.450Z,7.10
2018-03-25T11:30:24.199Z,7.20
2018-03-25T11:32:52.051Z,7.20
2018-03-25T11:35:20.006Z,7.20
2018-03-25T11:37:47.757Z,7.20
2018-03-25T11:40:15.608Z,7.20
2018-03-25T11:42:43.460Z,7.20
2018-03-25T11:45:11.310Z,7.20
2018-03-25T11:47:39.160Z,7.20
2018-03-25T11:50:07.119Z,7.20
2018-03-25T11:52:35.689Z,7.20
2018-03-25T11:55:03.544Z,7.10
2018-03-25T11:57:31.391Z,7.20
2018-03-25T11:59:59.327Z,7.20
2018-03-25T12:02:27.056Z,7.20
2018-03-25T12:04:54.737Z,7.20
2018-03-25T12:07:22.591Z,7.20
2018-03-25T12:09:50.443Z,7.20
2018-03-25T12:12:18.295Z,7.20
2018-03-25T12:14:45.967Z,7.20
2018-03-25T12:17:14.513Z,7.30
2018-03-25T12:19:42.362Z,7.30
2018-03-25T12:22:10.112Z,7.30
2018-03-25T12:24:37.848Z,7.40
2018-03-25T12:27:05.612Z,7.40
2018-03-25T12:29:33.362Z,7.40
2018-03-25T12:32:01.214Z,7.40
2018-03-25T12:34:28.969Z,7.40
2018-03-25T12:36:56.688Z,7.50
2018-03-25T12:39:24.462Z,7.50
2018-03-25T12:41:52.313Z,7.50
2018-03-25T12:44:20.062Z,7.50
2018-03-25T12:46:47.851Z,7.50
2018-03-25T12:49:15.705Z,7.60
2018-03-25T12:51:43.621Z,7.60
2018-03-25T12:54:11.470Z,7.60
2018-03-25T12:56:39.219Z,7.60
2018-03-25T12:59:07.181Z,7.60
2018-03-25T13:01:35.759Z,7.70
2018-03-25T13:04:03.699Z,7.60
2018-03-25T13:06:31.489Z,7.70
2018-03-25T13:08:59.301Z,7.70
2018-03-25T13:11:27.151Z,7.80
2018-03-25T13:13:54.899Z,7.80
2018-03-25T13:16:22.751Z,7.80
2018-03-25T13:18:50.461Z,7.90
2018-03-25T13:21:18.352Z,7.90
2018-03-25T13:23:46.103Z,7.90
2018-03-25T13:26:13.954Z,8.00
2018-03-25T13:28:41.805Z,8.00
2018-03-25T13:31:10.477Z,7.90
2018-03-25T13:33:39.157Z,7.90
2018-03-25T13:36:07.003Z,7.90
2018-03-25T13:38:34.853Z,7.90
2018-03-25T13:41:02.602Z,7.90
2018-03-25T13:43:30.352Z,7.90
2018-03-25T13:45:58.205Z,7.90
2018-03-25T13:48:25.954Z,7.90
2018-03-25T13:50:53.820Z,7.90
2018-03-25T13:53:22.372Z,8.00
2018-03-25T13:55:50.329Z,8.00
2018-03-25T13:58:18.179Z,8.00
2018-03-25T14:00:46.031Z,8.00
2018-03-25T14:03:13.881Z,8.00
2018-03-25T14:05:41.640Z,8.00
2018-03-25T14:08:09.483Z,8.00
2018-03-25T14:10:37.443Z,8.00
2018-03-25T14:13:05.291Z,8.00
2018-03-25T14:15:33.147Z,7.90
2018-03-25T14:18:00.898Z,7.90
2018-03-25T14:20:28.749Z,7.90
2018-03-25T14:22:56.440Z,7.90
2018-03-25T14:25:24.244Z,7.80
2018-03-25T14:27:51.992Z,7.80
2018-03-25T14:30:19.781Z,7.80
2018-03-25T14:32:47.695Z,7.80
2018-03-25T14:35:15.547Z,7.80
2018-03-25T14:37:43.398Z,7.80
2018-03-25T14:40:11.150Z,7.90
2018-03-25T14:42:39.021Z,7.90
2018-03-25T14:45:07.508Z,7.90
2018-03-25T14:47:35.385Z,7.90
2018-03-25T14:50:03.274Z,7.90
2018-03-25T14:52:31.058Z,8.00
2018-03-25T14:54:59.693Z,8.00
2018-03-25T14:57:27.442Z,7.90
2018-03-25T14:59:55.304Z,8.00
2018-03-25T15:02:23.146Z,8.00
2018-03-25T15:04:51.000Z,8.00
2018-03-25T15:07:18.849Z,8.00
2018-03-25T15:09:46.702Z,8.00
2018-03-25T15:12:14.450Z,8.00
2018-03-25T15:14:44.046Z,8.00
2018-03-25T15:17:12.715Z,8.00
2018-03-25T15:19:40.509Z,8.00
2018-03-25T15:22:08.417Z,8.00
2018-03-25T15:24:36.107Z,8.10
2018-03-25T15:27:03.918Z,8.00
2018-03-25T15:29:31.770Z,8.00
2018-03-25T15:31:59.622Z,8.00
2018-03-25T15:34:27.476Z,8.00
2018-03-25T15:36:55.329Z,8.00
2018-03-25T15:39:23.279Z,8.00
2018-03-25T15:41:51.039Z,8.00
2018-03-25T15:44:18.799Z,8.00
2018-03-25T15:46:47.448Z,8.00
2018-03-25T15:49:15.300Z,8.00
2018-03-25T15:51:43.153Z,8.00
2018-03-25T15:54:10.903Z,8.10
2018-03-25T15:56:38.781Z,8.10
2018-03-25T15:59:07.543Z,8.10
2018-03-25T16:01:36.040Z,8.10
2018-03-25T16:04:03.949Z,8.00
2018-03-25T16:06:31.699Z,8.10
2018-03-25T16:08:59.654Z,8.10
2018-03-25T16:11:27.504Z,8.10
2018-03-25T16:13:55.359Z,8.00
2018-03-25T16:16:23.208Z,8.00
2018-03-25T16:18:50.958Z,8.00
2018-03-25T16:21:18.809Z,8.00
2018-03-25T16:23:46.660Z,8.00
2018-03-25T16:26:14.518Z,8.00
2018-03-25T16:28:42.366Z,7.90
2018-03-25T16:31:10.220Z,7.90
2018-03-25T16:33:38.079Z,7.90
2018-03-25T16:36:05.923Z,7.90
2018-03-25T16:38:34.597Z,7.90
2018-03-25T16:41:02.388Z,7.90
2018-03-25T16:43:30.298Z,7.90
2018-03-25T16:45:58.620Z,7.90
2018-03-25T16:48:26.512Z,7.90
2018-03-25T16:50:54.262Z,7.90
2018-03-25T16:53:22.135Z,7.90
2018-03-25T16:55:50.624Z,7.90
2018-03-25T16:58:18.430Z,7.90
2018-03-25T17:00:46.282Z,7.90
2018-03-25T17:03:14.080Z,7.90
2018-03-25T17:05:41.905Z,7.90
2018-03-25T17:08:09.634Z,7.90
2018-03-25T17:10:38.202Z,7.80
2018-03-25T17:13:06.066Z,7.80
2018-03-25T17:15:34.260Z,7.80
2018-03-25T17:18:02.066Z,7.80
2018-03-25T17:20:29.920Z,7.80
2018-03-25T17:22:57.777Z,7.80
2018-03-25T17:25:25.642Z,7.80
2018-03-25T17:27:54.292Z,7.80
2018-03-25T17:30:22.048Z,7.70
2018-03-25T17:32:49.893Z,7.80
2018-03-25T17:35:17.633Z,7.80
2018-03-25T17:37:45.316Z,7.80
2018-03-25T17:40:13.968Z,7.80
2018-03-25T17:42:41.814Z,7.70
2018-03-25T17:45:09.562Z,7.80
2018-03-25T17:47:37.521Z,7.80
2018-03-25T17:50:05.388Z,7.80
2018-03-25T17:52:33.938Z,7.70
2018-03-25T17:55:01.801Z,7.70
2018-03-25T17:57:29.642Z,7.70
2018-03-25T17:59:57.506Z,7.80
2018-03-25T18:02:25.349Z,7.80
2018-03-25T18:04:53.094Z,7.80
2018-03-25T18:07:20.843Z,7.80
2018-03-25T18:09:48.703Z,7.80
2018-03-25T18:12:16.550Z,7.80
2018-03-25T18:14:44.341Z,7.80
2018-03-25T18:17:33.463Z,7.90
2018-03-25T18:19:40.004Z,7.80
2018-03-25T18:22:08.669Z,7.90
2018-03-25T18:24:36.563Z,7.90
2018-03-25T18:27:04.480Z,8.00
2018-03-25T18:29:32.228Z,8.00
2018-03-25T18:32:00.079Z,8.10
2018-03-25T18:34:27.776Z,8.20
2018-03-25T18:36:55.583Z,8.20
2018-03-25T18:39:23.535Z,8.20
2018-03-25T18:41:51.384Z,8.30
2018-03-25T18:44:19.236Z,8.30
2018-03-25T18:46:46.985Z,8.40
2018-03-25T18:49:14.850Z,8.40
2018-03-25T18:51:43.507Z,8.40
2018-03-25T18:54:11.360Z,8.40
2018-03-25T18:56:39.213Z,8.40
2018-03-25T18:59:07.881Z,8.40
2018-03-25T19:01:35.634Z,8.30
2018-03-25T19:04:03.486Z,8.30
2018-03-25T19:06:31.644Z,8.40
2018-03-25T19:08:59.496Z,8.30
2018-03-25T19:11:27.350Z,8.30
2018-03-25T19:13:55.260Z,8.30
2018-03-25T19:16:23.153Z,8.30
2018-03-25T19:18:50.903Z,8.30
2018-03-25T19:21:18.652Z,8.30
2018-03-25T19:23:46.404Z,8.20
2018-03-25T19:26:14.253Z,8.20
2018-03-25T19:28:42.415Z,8.20
2018-03-25T19:31:10.264Z,8.20
2018-03-25T19:33:38.117Z,8.10
2018-03-25T19:36:05.970Z,8.10
2018-03-25T19:38:33.925Z,8.10
2018-03-25T19:41:01.776Z,8.10
2018-03-25T19:43:29.628Z,8.10
2018-03-25T19:45:57.378Z,8.10
2018-03-25T19:48:25.229Z,8.10
2018-03-25T19:50:53.081Z,8.00
2018-03-25T19:53:21.239Z,8.10
2018-03-25T19:55:48.988Z,8.00
2018-03-25T19:58:16.840Z,8.00
2018-03-25T20:00:44.588Z,7.90
2018-03-25T20:03:12.441Z,7.90
2018-03-25T20:05:40.295Z,7.90
2018-03-25T20:08:08.247Z,7.90
2018-03-25T20:10:36.101Z,7.90
2018-03-25T20:13:03.850Z,8.00
2018-03-25T20:15:31.702Z,7.90
2018-03-25T20:17:59.557Z,8.00
2018-03-25T20:20:27.311Z,8.00
2018-03-25T20:22:55.162Z,8.00
2018-03-25T20:25:22.914Z,7.90
2018-03-25T20:27:50.969Z,7.90
2018-03-25T20:30:18.831Z,7.90
2018-03-25T20:32:46.674Z,7.80
2018-03-25T20:35:14.524Z,7.80
2018-03-25T20:37:42.580Z,7.70
2018-03-25T20:40:10.434Z,7.70
2018-03-25T20:42:41.662Z,7.60
2018-03-25T20:45:09.620Z,7.60
2018-03-25T20:47:37.371Z,7.60
2018-03-25T20:50:05.733Z,7.60
2018-03-25T20:52:33.584Z,7.60
2018-03-25T20:55:01.437Z,7.60
2018-03-25T20:57:38.932Z,7.50
2018-03-25T21:00:07.587Z,7.50
2018-03-25T21:02:36.271Z,7.50
2018-03-25T21:05:04.825Z,7.50
2018-03-25T21:07:32.573Z,7.50
2018-03-25T21:10:00.425Z,7.50
2018-03-25T21:12:28.276Z,7.50
2018-03-25T21:14:56.127Z,7.40
2018-03-25T21:17:23.981Z,7.40
2018-03-25T21:19:51.750Z,7.40
2018-03-25T21:22:20.414Z,7.30
2018-03-25T21:24:49.072Z,7.30
2018-03-25T21:27:16.922Z,7.30
2018-03-25T21:29:44.773Z,7.20
2018-03-25T21:32:12.529Z,7.30
2018-03-25T21:34:40.271Z,7.20
2018-03-25T21:37:08.332Z,7.20
2018-03-25T21:39:36.189Z,7.20
2018-03-25T21:42:04.036Z,7.10
2018-03-25T21:44:31.793Z,7.00
2018-03-25T21:46:59.636Z,7.00
2018-03-25T21:49:27.389Z,7.00
2018-03-25T21:51:55.239Z,7.00
2018-03-25T21:54:22.936Z,7.00
2018-03-25T21:56:50.836Z,7.00
2018-03-25T21:59:18.587Z,7.00
2018-03-25T22:01:46.336Z,7.00
2018-03-25T22:04:14.187Z,7.00
2018-03-25T22:06:41.937Z,7.00
2018-03-25T22:09:10.404Z,6.90
2018-03-25T22:11:38.254Z,7.00
2018-03-25T22:14:06.062Z,6.90
2018-03-25T22:16:33.857Z,6.90
2018-03-25T22:19:01.611Z,6.80
2018-03-25T22:21:29.459Z,6.80
2018-03-25T22:23:57.210Z,6.80
2018-03-25T22:26:25.162Z,6.80
2018-03-25T22:28:52.914Z,6.70
2018-03-25T22:31:20.608Z,6.70
2018-03-25T22:33:48.412Z,6.70
2018-03-25T22:36:16.159Z,6.60
2018-03-25T22:38:43.909Z,6.60
2018-03-25T22:41:11.658Z,6.60
2018-03-25T22:43:39.509Z,6.50
2018-03-25T22:46:07.262Z,6.60
2018-03-25T22:48:35.118Z,6.50
2018-03-25T22:51:03.008Z,6.50
2018-03-25T22:53:30.819Z,6.50
2018-03-25T22:55:58.668Z,6.40
2018-03-25T22:58:26.530Z,6.40
2018-03-25T23:00:54.372Z,6.40
2018-03-25T23:03:22.229Z,6.40
2018-03-25T23:05:50.075Z,6.30
2018-03-25T23:08:17.826Z,6.30
2018-03-25T23:10:45.575Z,6.30
2018-03-25T23:13:13.426Z,6.30
2018-03-25T23:15:41.278Z,6.30
2018-03-25T23:18:09.128Z,6.20
2018-03-25T23:20:36.984Z,6.20
2018-03-25T23:23:04.835Z,6.20
2018-03-25T23:25:32.688Z,6.20
2018-03-25T23:28:06.720Z,6.20
2018-03-25T23:30:34.536Z,6.10
2018-03-25T23:33:02.351Z,6.20
2018-03-25T23:35:30.134Z,6.20
2018-03-25T23:37:57.987Z,6.10
2018-03-25T23:40:25.736Z,6.10
2018-03-25T23:42:53.484Z,6.10
2018-03-25T23:45:21.337Z,6.10
2018-03-25T23:47:49.135Z,6.10
2018-03-25T23:50:17.776Z,6.00
2018-03-25T23:52:45.608Z,6.00
2018-03-25T23:55:13.461Z,6.00
2018-03-25T23:57:41.217Z,6.00
